Time;durP1;ratioP1;P1;durP2;ratioP2;P2;SDS_P1;SDS_P2;PMS_P1;PMS_P2;Temp;Humidity;BMP_temperature;BMP_pressure;BME280_temperature;BME280_humidity;BME280_pressure;Samples;Min_cycle;Max_cycle;Signal;HPM_P1;HPM_P2
2023/03/02 00:01:30;;;;;;;150.43;73.93;;;-2.30;99.90;;;;;;2622450;46;20088;31
2023/03/02 00:04:07;;;;;;;140.75;68.15;;;-2.40;99.90;;;;;;2603866;54;20875;31
2023/03/02 00:06:42;;;;;;;138.15;65.15;;;-2.40;99.90;;;;;;2622553;46;20568;31
2023/03/02 00:09:18;;;;;;;147.73;69.15;;;-2.40;99.90;;;;;;2603871;54;20097;31
2023/03/02 00:11:56;;;;;;;130.15;66.65;;;-2.40;99.90;;;;;;2603812;54;20042;31
2023/03/02 00:14:32;;;;;;;138.95;69.15;;;-2.50;99.90;;;;;;2603855;54;20881;31
2023/03/02 00:17:12;;;;;;;;;;;-2.50;99.90;;;;;;2702729;39;20553;31
2023/03/02 00:19:49;;;;;;;156.80;75.95;;;-2.50;99.90;;;;;;2603346;54;19956;31
2023/03/02 00:22:25;;;;;;;167.40;78.30;;;-2.60;99.90;;;;;;2603921;54;20042;31
2023/03/02 00:25:00;;;;;;;148.67;69.00;;;-2.60;99.90;;;;;;2602876;54;20875;31
2023/03/02 00:27:40;;;;;;;162.18;71.43;;;-2.60;99.90;;;;;;2603624;54;20277;31
2023/03/02 00:30:16;;;;;;;151.65;71.00;;;-2.60;99.90;;;;;;2622090;46;20093;31
2023/03/02 00:32:57;;;;;;;140.35;67.47;;;-2.60;99.90;;;;;;2603854;54;20038;31
2023/03/02 00:35:31;;;;;;;143.67;65.73;;;-2.60;99.90;;;;;;2622123;46;20033;31
2023/03/02 00:38:10;;;;;;;131.05;64.90;;;-2.60;99.90;;;;;;2603827;54;20033;31
2023/03/02 00:40:50;;;;;;;134.70;62.65;;;-2.70;99.90;;;;;;2603564;54;20034;31
2023/03/02 00:43:28;;;;;;;127.47;61.50;;;-2.60;99.90;;;;;;2603809;54;20731;31
2023/03/02 00:46:13;;;;;;;129.93;62.60;;;-2.70;99.90;;;;;;2622214;46;20160;31
2023/03/02 00:48:58;;;;;;;130.65;62.10;;;-2.70;99.90;;;;;;2622381;46;20588;31
2023/03/02 00:51:38;;;;;;;144.52;68.20;;;-2.70;99.90;;;;;;2603532;54;20241;31
2023/03/02 00:54:14;;;;;;;131.70;64.25;;;-2.80;99.90;;;;;;2603674;54;21379;31
2023/03/02 00:56:48;;;;;;;;;;;-2.80;99.90;;;;;;2603024;54;20984;31
2023/03/02 00:59:28;;;;;;;133.70;63.25;;;-2.80;99.90;;;;;;2610087;46;20678;31
2023/03/02 01:02:16;;;;;;;155.23;76.43;;;-2.80;99.90;;;;;;2603391;54;20918;31
2023/03/02 01:04:55;;;;;;;;;;;-2.90;99.90;;;;;;2603218;54;20030;31
2023/03/02 01:07:33;;;;;;;153.63;73.07;;;-2.90;99.90;;;;;;2603594;54;19942;31
2023/03/02 01:10:10;;;;;;;155.82;71.15;;;-2.90;99.90;;;;;;2603753;54;20105;31
2023/03/02 01:12:46;;;;;;;162.77;75.83;;;-2.90;99.90;;;;;;2621975;46;20032;31
2023/03/02 01:15:21;;;;;;;172.50;80.97;;;-2.90;99.90;;;;;;2603434;54;20381;31
2023/03/02 01:17:57;;;;;;;151.20;73.22;;;-3.00;99.90;;;;;;2603594;54;20030;31
2023/03/02 01:20:38;;;;;;;161.95;76.10;;;-3.00;99.90;;;;;;2603481;54;20113;31
2023/03/02 01:23:13;;;;;;;158.20;75.80;;;-3.10;99.90;;;;;;2621646;46;20026;31
2023/03/02 01:25:48;;;;;;;141.38;66.22;;;-3.10;99.90;;;;;;2622185;46;20057;31
2023/03/02 01:28:24;;;;;;;177.43;83.87;;;-3.10;99.90;;;;;;2621883;46;20089;31
2023/03/02 01:31:01;;;;;;;168.25;75.95;;;-3.20;99.90;;;;;;2603417;54;20770;31
2023/03/02 01:33:38;;;;;;;163.48;74.07;;;-3.20;99.90;;;;;;2603414;54;20051;31
2023/03/02 01:36:20;;;;;;;184.20;81.40;;;-3.20;99.90;;;;;;2603557;54;19942;31
2023/03/02 01:41:29;;;;;;;169.15;75.60;;;-3.20;99.90;;;;;;2603485;54;20593;31
2023/03/02 01:44:07;;;;;;;197.35;91.25;;;-3.20;99.90;;;;;;2603648;54;20648;31
2023/03/02 01:46:49;;;;;;;177.15;82.20;;;-3.20;99.90;;;;;;2603334;54;20349;31
2023/03/02 01:49:29;;;;;;;168.80;76.75;;;-3.20;99.90;;;;;;2602544;54;21116;31
2023/03/02 01:52:11;;;;;;;173.95;82.38;;;-3.30;99.90;;;;;;2603590;54;20867;31
2023/03/02 01:54:48;;;;;;;180.20;82.20;;;-3.30;99.90;;;;;;2603523;54;20030;31
2023/03/02 01:57:25;;;;;;;186.33;87.50;;;-3.30;99.90;;;;;;2603429;54;20906;31
2023/03/02 02:00:05;;;;;;;172.05;80.85;;;-3.30;99.90;;;;;;2603468;54;20331;31
2023/03/02 02:02:46;;;;;;;195.70;88.05;;;-3.40;99.90;;;;;;2603395;54;20034;31
2023/03/02 02:05:25;;;;;;;198.75;87.40;;;-3.40;99.90;;;;;;2621859;46;20051;31
2023/03/02 02:08:05;;;;;;;166.88;78.05;;;-3.40;99.90;;;;;;2602601;54;20806;31
2023/03/02 02:10:46;;;;;;;193.50;84.35;;;-3.40;99.90;;;;;;2609629;46;20608;31
2023/03/02 02:13:24;;;;;;;157.80;70.90;;;-3.50;99.90;;;;;;2603411;54;20148;31
2023/03/02 02:15:59;;;;;;;164.27;77.75;;;-3.50;99.90;;;;;;2701809;39;20503;31
2023/03/02 02:18:35;;;;;;;172.55;78.03;;;-3.50;99.90;;;;;;2603500;54;20109;31
2023/03/02 02:21:10;;;;;;;;;;;-3.60;99.90;;;;;;2603609;54;21694;31
2023/03/02 02:23:51;;;;;;;177.30;77.72;;;-3.60;99.90;;;;;;2603221;54;19942;31
2023/03/02 02:26:34;;;;;;;154.82;72.15;;;-3.60;99.90;;;;;;2603303;54;20052;31
2023/03/02 02:29:11;;;;;;;173.23;83.15;;;-3.70;99.90;;;;;;2621155;46;20026;31
2023/03/02 02:31:50;;;;;;;145.00;67.93;;;-3.70;99.90;;;;;;2603533;54;20026;31
2023/03/02 02:34:29;;;;;;;151.32;73.15;;;-3.70;99.90;;;;;;2603519;54;20234;31
2023/03/02 02:37:07;;;;;;;158.10;76.15;;;-3.70;99.90;;;;;;2773463;31;20540;31
2023/03/02 02:39:44;;;;;;;187.60;83.55;;;-3.70;99.90;;;;;;2701043;39;21573;31
2023/03/02 02:42:26;;;;;;;164.80;75.88;;;-3.80;99.90;;;;;;2603144;54;20841;31
2023/03/02 02:45:02;;;;;;;171.30;80.07;;;-3.70;99.90;;;;;;2603006;54;20873;31
2023/03/02 02:47:38;;;;;;;175.03;81.27;;;-3.70;99.90;;;;;;2603400;54;20057;31
2023/03/02 02:50:18;;;;;;;168.57;77.33;;;-3.80;99.90;;;;;;2603259;54;20112;31
2023/03/02 02:52:58;;;;;;;188.85;84.78;;;-3.80;99.90;;;;;;2603090;54;20112;31
2023/03/02 02:55:32;;;;;;;160.20;75.80;;;-3.80;99.90;;;;;;2603423;54;20038;31
2023/03/02 02:58:18;;;;;;;174.30;83.38;;;-3.80;99.90;;;;;;2603034;54;20041;31
2023/03/02 03:00:56;;;;;;;171.52;78.68;;;-3.80;99.90;;;;;;2603388;54;21601;31
2023/03/02 03:03:32;;;;;;;179.63;80.38;;;-3.80;99.90;;;;;;2602976;54;20108;31
2023/03/02 03:06:11;;;;;;;217.15;98.68;;;-3.80;99.90;;;;;;2603091;54;20029;31
2023/03/02 03:08:59;;;;;;;202.75;93.60;;;-3.80;99.90;;;;;;2603225;54;21317;31
2023/03/02 03:11:44;;;;;;;217.98;97.25;;;-3.80;99.90;;;;;;2621661;46;20110;31
2023/03/02 03:14:26;;;;;;;189.13;91.05;;;-3.80;99.90;;;;;;2603308;54;20045;31
2023/03/02 03:17:11;;;;;;;206.18;95.78;;;-3.80;99.90;;;;;;2602930;54;20053;31
2023/03/02 03:20:05;;;;;;;194.53;90.03;;;-3.80;99.90;;;;;;2603269;54;20026;31
2023/03/02 03:22:47;;;;;;;214.32;98.38;;;-3.80;99.90;;;;;;2602698;54;21093;31
2023/03/02 03:25:23;;;;;;;205.73;90.18;;;-3.80;99.90;;;;;;2603022;54;20023;31
2023/03/02 03:27:59;;;;;;;213.07;90.82;;;-3.90;99.90;;;;;;2602849;54;20934;31
2023/03/02 03:30:42;;;;;;;180.75;84.10;;;-3.90;99.90;;;;;;2603256;54;20116;31
2023/03/02 03:33:17;;;;;;;176.30;78.10;;;-3.90;99.90;;;;;;2603145;54;20081;31
2023/03/02 03:35:53;;;;;;;195.10;89.27;;;-3.90;99.90;;;;;;2603258;54;20030;31
2023/03/02 03:38:31;;;;;;;206.00;89.35;;;-3.90;99.90;;;;;;2602901;54;20157;31
2023/03/02 03:41:09;;;;;;;201.20;87.00;;;-4.00;99.90;;;;;;2603316;54;20051;31
2023/03/02 03:43:49;;;;;;;202.27;85.95;;;-4.00;99.90;;;;;;2603032;54;20947;31
2023/03/02 03:46:30;;;;;;;234.90;100.90;;;-4.00;99.90;;;;;;2603028;54;20112;31
2023/03/02 03:49:08;;;;;;;189.23;83.07;;;-4.00;99.90;;;;;;2603212;54;20105;31
2023/03/02 03:54:17;;;;;;;189.75;84.70;;;-4.10;99.90;;;;;;2602957;54;20152;31
2023/03/02 03:56:55;;;;;;;180.65;79.50;;;-4.10;99.90;;;;;;2603007;54;19947;31
2023/03/02 03:59:30;;;;;;;204.30;89.13;;;-4.20;99.90;;;;;;2603084;54;20897;31
2023/03/02 04:02:12;;;;;;;185.47;84.57;;;-4.20;99.90;;;;;;2602916;54;20027;31
2023/03/02 04:04:49;;;;;;;179.55;75.78;;;-4.10;99.90;;;;;;2602953;54;20258;31
2023/03/02 04:07:25;;;;;;;200.33;90.43;;;-4.20;99.90;;;;;;2603048;54;20026;31
2023/03/02 04:10:02;;;;;;;190.07;83.28;;;-4.20;99.90;;;;;;2602871;54;20096;31
2023/03/02 04:12:43;;;;;;;197.45;88.20;;;-4.20;99.90;;;;;;2602834;54;20030;31
2023/03/02 04:15:21;;;;;;;199.10;85.60;;;-4.20;99.90;;;;;;2701599;39;20535;31
2023/03/02 04:18:04;;;;;;;201.45;85.05;;;-4.20;99.90;;;;;;2603210;54;20049;31
2023/03/02 04:20:42;;;;;;;204.43;88.25;;;-4.30;99.90;;;;;;2602828;54;20083;31
2023/03/02 04:23:19;;;;;;;179.50;79.68;;;-4.30;99.90;;;;;;2602829;54;20030;31
2023/03/02 04:25:57;;;;;;;174.27;76.40;;;-4.30;99.90;;;;;;2602850;54;20891;31
2023/03/02 04:28:33;;;;;;;194.32;86.65;;;-4.30;99.90;;;;;;2701594;39;21086;31
2023/03/02 04:31:10;;;;;;;201.20;89.25;;;-4.30;99.90;;;;;;2602980;54;20026;31
2023/03/02 04:33:45;;;;;;;186.48;79.68;;;-4.30;99.90;;;;;;2602733;54;20100;31
2023/03/02 04:36:23;;;;;;;186.00;76.50;;;-4.30;99.90;;;;;;2602912;54;20057;31
2023/03/02 04:39:00;;;;;;;159.27;69.22;;;-4.40;99.90;;;;;;2603573;54;20919;31
2023/03/02 04:41:36;;;;;;;160.95;69.25;;;-4.40;99.90;;;;;;2603643;54;20740;31
2023/03/02 04:44:13;;;;;;;159.00;68.87;;;-4.40;99.90;;;;;;2603770;54;20850;31
2023/03/02 04:46:48;;;;;;;176.57;74.37;;;-4.40;99.90;;;;;;2602829;54;20380;31
2023/03/02 04:49:27;;;;;;;165.80;72.57;;;-4.40;99.90;;;;;;2603922;54;20036;31
2023/03/02 04:52:04;;;;;;;165.10;69.85;;;-4.40;99.90;;;;;;2720642;39;21439;31
2023/03/02 04:54:40;;;;;;;151.05;63.47;;;-4.40;99.90;;;;;;2622413;46;20855;31
2023/03/02 04:57:16;;;;;;;180.37;78.53;;;-4.50;99.90;;;;;;2603624;54;20155;31
2023/03/02 04:59:50;;;;;;;173.95;76.35;;;-4.50;99.90;;;;;;2603467;54;20239;31
2023/03/02 05:02:27;;;;;;;164.20;71.25;;;-4.50;99.90;;;;;;2603677;54;20026;31
2023/03/02 05:05:05;;;;;;;171.13;74.40;;;-4.50;99.90;;;;;;2602743;54;21682;31
2023/03/02 05:07:46;;;;;;;161.23;68.20;;;-4.50;99.90;;;;;;2602967;54;20907;31
2023/03/02 05:10:24;;;;;;;144.93;66.43;;;-4.50;99.90;;;;;;2702219;39;20624;31
2023/03/02 05:13:01;;;;;;;152.57;66.82;;;-4.60;99.90;;;;;;2603661;54;20034;31
2023/03/02 05:15:35;;;;;;;185.90;80.10;;;-4.60;99.90;;;;;;2603664;54;20038;31
2023/03/02 05:18:13;;;;;;;157.35;70.68;;;-4.60;99.90;;;;;;2603113;54;19939;31
2023/03/02 05:20:49;;;;;;;182.35;75.57;;;-4.60;99.90;;;;;;2702137;39;20509;31
2023/03/02 05:23:30;;;;;;;;;;;-4.60;99.90;;;;;;2603637;54;20971;31
2023/03/02 05:26:05;;;;;;;167.27;71.85;;;-4.70;99.90;;;;;;2603357;54;20015;31
2023/03/02 05:28:40;;;;;;;164.07;73.40;;;-4.70;99.90;;;;;;2603565;54;20864;31
2023/03/02 05:31:20;;;;;;;158.02;68.35;;;-4.70;99.90;;;;;;2603516;54;20242;31
2023/03/02 05:33:56;;;;;;;156.03;67.83;;;-4.70;99.90;;;;;;2603357;54;20113;31
2023/03/02 05:36:36;;;;;;;160.65;67.45;;;-4.70;99.90;;;;;;2614911;46;20926;31
2023/03/02 05:39:19;;;;;;;177.18;76.60;;;-4.70;99.90;;;;;;2603276;54;20896;31
2023/03/02 05:41:54;;;;;;;164.57;77.25;;;-4.60;99.90;;;;;;2603502;54;20031;31
2023/03/02 05:44:29;;;;;;;174.35;77.18;;;-4.60;99.90;;;;;;2621745;46;20038;31
2023/03/02 05:47:05;;;;;;;187.33;81.83;;;-4.70;99.90;;;;;;2603185;54;20932;31
2023/03/02 05:49:41;;;;;;;180.23;80.45;;;-4.70;99.90;;;;;;2603328;54;19950;31
2023/03/02 05:52:18;;;;;;;173.85;77.32;;;-4.70;99.90;;;;;;2603632;54;20815;31
2023/03/02 05:54:59;;;;;;;183.55;79.47;;;-4.70;99.90;;;;;;2621813;46;20026;31
2023/03/02 06:00:11;;;;;;;149.52;68.13;;;-4.60;99.90;;;;;;2603605;54;20031;31
2023/03/02 06:05:34;;;;;;;194.30;82.90;;;-4.40;99.90;;;;;;2603324;54;20905;31
2023/03/02 06:08:12;;;;;;;200.00;87.57;;;-4.20;99.90;;;;;;2720351;39;21149;31
2023/03/02 06:10:49;;;;;;;220.93;94.40;;;-4.00;99.90;;;;;;2603471;54;20326;31
2023/03/02 06:13:28;;;;;;;211.18;95.30;;;-3.70;99.90;;;;;;2603143;54;20686;31
2023/03/02 06:16:04;;;;;;;341.40;148.60;;;-3.40;99.90;;;;;;2621966;46;20030;31
2023/03/02 06:18:39;;;;;;;342.65;145.35;;;-2.90;99.90;;;;;;2603319;54;20993;31
2023/03/02 06:21:15;;;;;;;356.13;148.32;;;-2.50;99.90;;;;;;2602506;54;20905;31
2023/03/02 06:23:51;;;;;;;353.55;142.15;;;-2.10;99.90;;;;;;2620689;46;20145;31
2023/03/02 06:26:30;;;;;;;358.65;147.65;;;-1.80;99.90;;;;;;2602554;54;20777;31
2023/03/02 06:29:10;;;;;;;344.97;143.33;;;-1.50;99.90;;;;;;2603255;54;20101;31
2023/03/02 06:31:47;;;;;;;299.75;133.90;;;-1.20;99.90;;;;;;2621598;46;20243;31
2023/03/02 06:34:28;;;;;;;286.38;124.80;;;-0.90;99.90;;;;;;2621607;46;20831;31
2023/03/02 06:37:04;;;;;;;256.30;119.20;;;-0.60;99.90;;;;;;2603150;54;20113;31
2023/03/02 06:39:42;;;;;;;209.75;99.85;;;-0.40;99.90;;;;;;2603300;54;20761;31
2023/03/02 06:42:23;;;;;;;193.30;91.80;;;0.00;99.90;;;;;;2603560;54;20132;31
2023/03/02 06:45:00;;;;;;;169.00;82.90;;;0.50;99.90;;;;;;2621957;46;20031;31
2023/03/02 06:47:36;;;;;;;167.65;81.13;;;0.90;99.90;;;;;;2603286;54;20022;31
2023/03/02 06:50:15;;;;;;;158.75;81.20;;;1.10;99.90;;;;;;2701896;39;20481;31
2023/03/02 06:52:51;;;;;;;155.35;77.45;;;1.30;99.90;;;;;;2603124;54;20869;31
2023/03/02 06:55:27;;;;;;;161.40;78.18;;;1.70;99.90;;;;;;2621851;46;20763;31
2023/03/02 06:58:04;;;;;;;154.32;75.90;;;2.10;99.90;;;;;;2603195;54;20152;31
2023/03/02 07:00:44;;;;;;;129.15;66.15;;;2.40;99.90;;;;;;2603282;54;20027;31
2023/03/02 07:03:24;;;;;;;137.60;69.40;;;2.80;99.90;;;;;;2603229;54;20805;31
2023/03/02 07:06:00;;;;;;;132.53;69.90;;;3.10;99.90;;;;;;2603013;54;20912;31
2023/03/02 07:08:35;;;;;;;;;;;3.50;99.90;;;;;;2603357;54;20071;31
2023/03/02 07:11:13;;;;;;;121.78;65.38;;;3.90;99.90;;;;;;2621516;46;20013;31
2023/03/02 07:13:50;;;;;;;117.78;64.35;;;4.20;99.90;;;;;;2603409;54;20032;31
2023/03/02 07:16:29;;;;;;;122.55;66.68;;;4.60;99.90;;;;;;2621630;46;20038;31
2023/03/02 07:19:04;;;;;;;118.25;65.45;;;4.80;99.90;;;;;;2603187;54;20026;31
2023/03/02 07:21:42;;;;;;;112.97;61.20;;;5.00;99.90;;;;;;2621631;46;20034;31
2023/03/02 07:24:18;;;;;;;117.47;65.07;;;5.20;99.90;;;;;;2603162;54;20358;31
2023/03/02 07:26:53;;;;;;;121.88;68.13;;;5.40;99.90;;;;;;2621681;46;20033;31
2023/03/02 07:29:31;;;;;;;119.38;68.20;;;5.50;99.90;;;;;;2701779;39;21588;31
2023/03/02 07:32:11;;;;;;;124.50;69.85;;;5.70;99.90;;;;;;2603165;54;20022;31
2023/03/02 07:34:47;;;;;;;133.50;75.88;;;6.00;99.90;;;;;;2602990;54;20026;31
2023/03/02 07:37:23;;;;;;;121.43;71.85;;;6.30;99.90;;;;;;2618994;47;20031;31
2023/03/02 07:39:58;;;;;;;125.20;74.97;;;6.60;99.90;;;;;;2603221;54;20026;31
2023/03/02 07:42:37;;;;;;;116.20;68.57;;;6.70;99.90;;;;;;2621186;47;20037;31
2023/03/02 07:45:19;;;;;;;112.38;67.32;;;7.00;99.90;;;;;;2603110;54;20027;31
2023/03/02 07:48:12;;;;;;;112.57;65.88;;;7.20;99.90;;;;;;2621557;47;20030;31
2023/03/02 07:50:48;;;;;;;115.07;66.88;;;7.30;99.90;;;;;;2603096;54;20867;31
2023/03/02 07:53:24;;;;;;;111.30;64.93;;;7.30;99.90;;;;;;2603218;54;20030;31
2023/03/02 07:56:01;;;;;;;118.80;72.20;;;7.60;99.90;;;;;;2620795;47;20871;31
2023/03/02 07:58:36;;;;;;;120.28;72.85;;;7.70;99.90;;;;;;2603047;54;20031;31
2023/03/02 08:01:15;;;;;;;109.53;65.57;;;7.80;99.90;;;;;;2603095;54;20030;31
2023/03/02 08:03:57;;;;;;;109.88;64.15;;;7.80;99.90;;;;;;2602928;54;20027;31
2023/03/02 08:06:36;;;;;;;106.85;64.07;;;8.20;99.90;;;;;;2609427;47;20046;31
2023/03/02 08:09:12;;;;;;;96.00;59.20;;;8.20;99.90;;;;;;2602351;54;20815;31
2023/03/02 08:11:52;;;;;;;90.23;54.93;;;8.30;99.90;;;;;;2603016;54;20022;31
2023/03/02 08:14:29;;;;;;;93.10;57.38;;;8.60;99.90;;;;;;2603039;54;20554;31
2023/03/02 08:17:07;;;;;;;103.77;57.23;;;8.70;99.90;;;;;;2603815;54;20765;31
2023/03/02 08:19:46;;;;;;;108.10;60.83;;;8.80;99.90;;;;;;2622532;46;20897;31
2023/03/02 08:22:24;;;;;;;102.13;64.80;;;8.90;99.90;;;;;;2603826;54;20049;31
2023/03/02 08:25:00;;;;;;;94.10;58.65;;;9.10;99.90;;;;;;2602889;54;20838;31
2023/03/02 08:27:41;;;;;;;90.13;54.80;;;9.30;99.90;;;;;;2603983;54;20097;31
2023/03/02 08:30:21;;;;;;;78.82;47.33;;;9.60;99.90;;;;;;2603905;54;20037;31
2023/03/02 08:33:06;;;;;;;67.80;41.47;;;9.90;99.90;;;;;;2622471;46;20037;31
2023/03/02 08:35:48;;;;;;;72.13;43.70;;;10.10;99.90;;;;;;2603752;54;20099;31
2023/03/02 08:38:26;;;;;;;71.22;42.83;;;10.20;99.90;;;;;;2622786;46;20030;31
2023/03/02 08:41:05;;;;;;;78.13;47.95;;;10.20;99.90;;;;;;2622405;46;20038;31
2023/03/02 08:43:40;;;;;;;82.20;49.60;;;10.20;99.90;;;;;;2622188;46;20034;31
2023/03/02 08:46:22;;;;;;;76.10;49.27;;;10.30;99.90;;;;;;2603831;54;20034;31
2023/03/02 08:48:58;;;;;;;63.53;40.50;;;10.50;99.90;;;;;;2622195;46;20242;31
2023/03/02 08:51:42;;;;;;;70.10;43.63;;;10.50;99.90;;;;;;2603922;54;20053;31
2023/03/02 08:54:20;;;;;;;71.63;43.40;;;10.50;99.90;;;;;;2621847;46;20048;31
2023/03/02 08:56:58;;;;;;;69.60;43.75;;;10.60;99.90;;;;;;2603872;54;20044;31
2023/03/02 08:59:35;;;;;;;68.80;44.00;;;10.70;99.90;;;;;;2603736;54;20026;31
2023/03/02 09:02:15;;;;;;;65.05;42.13;;;10.90;99.90;;;;;;2603741;54;20030;31
2023/03/02 09:04:51;;;;;;;74.45;43.17;;;11.00;99.90;;;;;;2603559;54;20858;31
2023/03/02 09:07:29;;;;;;;;;;;11.20;99.90;;;;;;2603068;54;20844;31
2023/03/02 09:10:09;;;;;;;66.57;41.53;;;11.30;99.90;;;;;;2622054;46;19985;31
2023/03/02 09:12:48;;;;;;;72.70;45.07;;;11.30;99.90;;;;;;2621828;46;20572;31
2023/03/02 09:15:27;;;;;;;75.85;45.00;;;11.60;99.90;;;;;;2603657;54;20056;31
2023/03/02 09:18:08;;;;;;;67.55;44.80;;;11.50;99.90;;;;;;2603829;54;20061;31
2023/03/02 09:20:45;;;;;;;68.13;44.00;;;11.60;99.90;;;;;;2603287;54;20026;31
2023/03/02 09:23:22;;;;;;;61.93;38.43;;;11.70;99.90;;;;;;2622177;46;20026;31
2023/03/02 09:26:00;;;;;;;;;;;11.80;98.40;;;;;;2603542;54;20763;31
2023/03/02 09:28:50;;;;;;;72.15;40.95;;;11.80;98.60;;;;;;2603308;54;20097;31
2023/03/02 09:31:29;;;;;;;69.75;42.67;;;11.80;98.90;;;;;;2603587;54;20036;31
2023/03/02 09:34:04;;;;;;;63.50;40.33;;;11.80;98.50;;;;;;2613417;46;20030;31
2023/03/02 09:36:41;;;;;;;69.57;42.40;;;11.80;98.40;;;;;;2603624;54;20026;31
2023/03/02 09:39:19;;;;;;;70.97;42.93;;;12.00;98.60;;;;;;2603402;54;20022;31
2023/03/02 09:42:29;;;;;;;54.05;35.15;;;12.00;97.70;;;;;;2603558;54;20027;31
2023/03/02 09:45:37;;;;;;;54.15;35.38;;;12.20;96.70;;;;;;2603416;54;20046;31
2023/03/02 09:51:06;;;;;;;51.45;32.67;;;12.10;95.60;;;;;;2603511;54;21281;31
2023/03/02 09:53:44;;;;;;;59.55;37.03;;;12.20;95.50;;;;;;2603447;54;20101;31
2023/03/02 09:56:20;;;;;;;54.57;35.00;;;12.10;95.50;;;;;;2602657;54;20029;31
2023/03/02 09:59:05;;;;;;;53.53;33.45;;;12.10;95.60;;;;;;2602652;54;20034;31
2023/03/02 10:01:47;;;;;;;46.40;30.23;;;12.10;94.30;;;;;;2603602;54;20778;31
2023/03/02 10:04:27;;;;;;;51.97;34.40;;;12.20;94.70;;;;;;2621877;46;21122;31
2023/03/02 10:07:14;;;;;;;48.22;32.33;;;12.20;94.80;;;;;;2621794;46;20030;31
2023/03/02 10:09:52;;;;;;;47.08;31.88;;;12.20;94.60;;;;;;2603422;54;20871;31
2023/03/02 10:12:50;;;;;;;49.00;33.25;;;12.10;93.10;;;;;;2603727;54;20026;31
2023/03/02 10:15:26;;;;;;;46.08;29.95;;;12.20;94.80;;;;;;2622122;46;20573;31
2023/03/02 10:18:09;;;;;;;52.50;33.70;;;12.30;93.90;;;;;;2622057;46;20033;31
2023/03/02 10:20:49;;;;;;;48.08;31.73;;;12.20;93.50;;;;;;2603316;54;20086;31
2023/03/02 10:23:45;;;;;;;49.25;33.50;;;12.10;93.90;;;;;;2621789;46;20136;31
2023/03/02 10:26:31;;;;;;;49.63;30.02;;;12.10;93.60;;;;;;2603379;54;20928;31
2023/03/02 10:29:30;;;;;;;45.72;30.15;;;12.20;93.80;;;;;;2701703;39;21729;31
2023/03/02 10:32:13;;;;;;;44.27;28.77;;;12.20;93.00;;;;;;2603385;54;20034;31
2023/03/02 10:34:51;;;;;;;44.15;29.33;;;12.30;94.60;;;;;;2603415;54;19934;31
2023/03/02 10:37:28;;;;;;;46.00;28.35;;;12.30;93.90;;;;;;2603530;54;20033;31
2023/03/02 10:40:04;;;;;;;44.70;29.55;;;12.30;94.30;;;;;;2603570;54;20034;31
2023/03/02 10:42:42;;;;;;;35.42;23.25;;;12.30;93.90;;;;;;2621440;46;20108;31
2023/03/02 10:45:19;;;;;;;35.73;22.97;;;12.30;93.40;;;;;;2603437;54;20034;31
2023/03/02 10:48:01;;;;;;;;;;;12.30;93.20;;;;;;2603191;54;20026;31
2023/03/02 10:50:44;;;;;;;26.63;17.95;;;12.30;92.60;;;;;;2622083;46;20754;31
2023/03/02 10:53:23;;;;;;;32.50;19.17;;;12.10;93.20;;;;;;2603378;54;20026;31
2023/03/02 10:56:02;;;;;;;30.65;20.05;;;12.00;93.20;;;;;;2602574;54;20041;31
2023/03/02 10:58:40;;;;;;;28.35;18.58;;;12.00;93.90;;;;;;2701673;39;21594;31
2023/03/02 11:01:20;;;;;;;33.17;20.67;;;11.90;93.80;;;;;;2621387;46;20033;31
2023/03/02 11:03:59;;;;;;;30.13;20.90;;;11.90;93.60;;;;;;2603305;54;20086;31
2023/03/02 11:06:42;;;;;;;28.80;19.93;;;11.80;93.50;;;;;;2603373;54;20112;31
2023/03/02 11:09:20;;;;;;;27.42;19.65;;;11.70;94.00;;;;;;2621801;46;20038;31
2023/03/02 11:11:59;;;;;;;31.35;19.83;;;11.60;94.30;;;;;;2621713;46;20034;31
2023/03/02 11:14:37;;;;;;;29.70;20.70;;;11.50;93.90;;;;;;2603307;54;20054;31
2023/03/02 11:17:26;;;;;;;;;;;11.40;94.00;;;;;;2603650;54;20033;31
2023/03/02 11:20:20;;;;;;;28.60;19.15;;;11.30;94.50;;;;;;2603244;54;19964;31
2023/03/02 11:23:35;;;;;;;26.27;16.58;;;11.10;94.60;;;;;;2603119;54;20812;31
2023/03/02 11:26:25;;;;;;;27.10;16.90;;;10.90;94.60;;;;;;2621566;46;20030;31
2023/03/02 11:29:04;;;;;;;28.13;17.58;;;10.70;95.10;;;;;;2603133;54;20050;31
2023/03/02 11:31:56;;;;;;;26.17;17.67;;;10.70;96.00;;;;;;2603061;54;20034;31
2023/03/02 11:34:53;;;;;;;29.60;17.90;;;10.70;95.90;;;;;;2621305;46;20962;31
2023/03/02 11:37:33;;;;;;;26.23;18.25;;;10.60;95.60;;;;;;2621496;47;20049;31
2023/03/02 11:43:12;;;;;;;26.20;17.20;;;10.50;96.50;;;;;;2621368;47;20022;31
2023/03/02 11:46:02;;;;;;;25.13;17.58;;;10.60;96.80;;;;;;2622230;46;20033;31
2023/03/02 11:48:51;;;;;;;33.13;18.40;;;10.50;96.50;;;;;;2603738;54;20038;31
2023/03/02 11:51:29;;;;;;;29.48;19.15;;;10.50;97.50;;;;;;2604021;54;20049;31
2023/03/02 11:54:15;;;;;;;28.48;18.88;;;10.60;96.90;;;;;;2603888;54;20034;31
2023/03/02 11:56:57;;;;;;;25.23;16.40;;;10.50;97.00;;;;;;2603685;54;20034;31
2023/03/02 11:59:34;;;;;;;26.65;17.08;;;10.50;97.40;;;;;;2622056;46;20050;31
2023/03/02 12:02:16;;;;;;;29.17;19.07;;;10.40;97.20;;;;;;2604034;54;20053;31
2023/03/02 12:05:18;;;;;;;27.42;17.02;;;10.40;97.10;;;;;;2603987;54;19941;31
2023/03/02 12:08:00;;;;;;;27.38;18.02;;;10.40;97.50;;;;;;2604053;54;20884;31
2023/03/02 12:10:38;;;;;;;26.33;17.10;;;10.30;97.60;;;;;;2602939;54;20031;31
2023/03/02 12:13:25;;;;;;;25.50;17.17;;;10.20;97.60;;;;;;2622143;46;20037;31
2023/03/02 12:16:06;;;;;;;24.92;16.60;;;10.10;97.90;;;;;;2603850;54;20722;31
2023/03/02 12:18:49;;;;;;;24.60;15.70;;;9.90;98.20;;;;;;2603842;54;20022;31
2023/03/02 12:21:26;;;;;;;29.08;17.10;;;9.90;98.30;;;;;;2604013;54;20137;31
2023/03/02 12:24:05;;;;;;;24.00;15.43;;;9.90;98.40;;;;;;2603989;54;20030;31
2023/03/02 12:26:48;;;;;;;26.77;15.25;;;9.90;98.20;;;;;;2603805;54;20867;31
2023/03/02 12:29:29;;;;;;;22.95;15.35;;;9.80;98.60;;;;;;2603808;54;20887;31
2023/03/02 12:32:22;;;;;;;22.67;15.07;;;9.70;98.40;;;;;;2603702;54;20097;31
2023/03/02 12:35:02;;;;;;;24.13;15.53;;;9.70;99.10;;;;;;2603930;54;20038;31
2023/03/02 12:37:45;;;;;;;19.20;13.70;;;9.70;99.60;;;;;;2603007;54;20037;31
2023/03/02 12:40:36;;;;;;;26.02;16.42;;;9.60;99.80;;;;;;2604005;54;20031;31
2023/03/02 12:43:29;;;;;;;23.08;15.32;;;9.60;99.60;;;;;;2603824;54;20036;31
2023/03/02 12:46:33;;;;;;;21.67;15.02;;;9.60;99.80;;;;;;2605586;46;20053;31
2023/03/02 12:49:31;;;;;;;25.90;14.30;;;9.60;99.90;;;;;;2701818;39;21629;31
2023/03/02 12:52:24;;;;;;;23.70;14.82;;;9.60;99.90;;;;;;2622002;46;20056;31
2023/03/02 12:55:07;;;;;;;21.50;13.20;;;9.60;99.90;;;;;;2702420;39;20477;31
2023/03/02 12:57:51;;;;;;;20.83;13.40;;;9.50;99.90;;;;;;2603910;54;20022;31
2023/03/02 13:03:36;;;;;;;19.17;13.30;;;9.40;99.90;;;;;;2603911;54;20027;31
2023/03/02 13:06:29;;;;;;;22.40;13.88;;;9.30;99.90;;;;;;2603538;54;20030;31
2023/03/02 13:09:17;;;;;;;20.33;12.25;;;9.30;99.90;;;;;;2603632;54;20026;31
2023/03/02 13:11:56;;;;;;;20.38;13.50;;;9.20;99.90;;;;;;2603138;54;20128;31
2023/03/02 13:14:37;;;;;;;21.55;13.85;;;9.20;99.90;;;;;;2622058;46;20049;31
2023/03/02 13:17:25;;;;;;;21.08;14.20;;;9.20;99.90;;;;;;2602995;54;20832;31
2023/03/02 13:20:02;;;;;;;21.05;13.15;;;9.20;99.90;;;;;;2603067;54;20859;31
2023/03/02 13:22:41;;;;;;;19.75;13.45;;;9.10;99.90;;;;;;2603622;54;20085;31
2023/03/02 13:25:25;;;;;;;22.25;14.20;;;9.20;99.90;;;;;;2603732;54;20096;31
2023/03/02 13:28:06;;;;;;;23.93;16.10;;;9.20;99.90;;;;;;2603578;54;20027;31
2023/03/02 13:33:22;;;;;;;31.58;16.60;;;9.20;99.90;;;;;;2603331;54;20844;31
2023/03/02 13:35:59;;;;;;;24.20;16.48;;;9.20;99.90;;;;;;2603587;54;20026;31
2023/03/02 13:38:40;;;;;;;26.63;17.30;;;9.10;99.90;;;;;;2621934;46;20026;31
2023/03/02 13:41:24;;;;;;;23.30;15.70;;;9.20;99.90;;;;;;2603813;54;20085;31
2023/03/02 13:44:00;;;;;;;23.73;15.67;;;9.10;99.90;;;;;;2764895;31;20061;31
2023/03/02 13:46:37;;;;;;;27.38;16.58;;;9.10;99.90;;;;;;2603600;54;19935;31
2023/03/02 13:49:27;;;;;;;24.83;15.88;;;9.10;99.90;;;;;;2603697;54;20033;31
2023/03/02 13:52:08;;;;;;;25.40;16.57;;;9.10;99.90;;;;;;2622064;46;20033;31
2023/03/02 13:54:49;;;;;;;25.63;16.85;;;9.00;99.90;;;;;;2603004;54;20026;31
2023/03/02 13:57:32;;;;;;;25.50;16.42;;;9.00;99.90;;;;;;2603775;54;20026;31
2023/03/02 14:00:07;;;;;;;21.52;15.38;;;9.00;99.90;;;;;;2701826;39;21612;31
2023/03/02 14:02:46;;;;;;;23.70;15.40;;;9.00;99.90;;;;;;2602805;54;20072;31